Time;durP1;ratioP1;P1;durP2;ratioP2;P2;SDS_P1;SDS_P2;PMS_P1;PMS_P2;Temp;Humidity;BMP_temperature;BMP_pressure;BME280_temperature;BME280_humidity;BME280_pressure;Samples;Min_cycle;Max_cycle;Signal;HPM_P1;HPM_P2
2022/08/06 00:02:05;;;;;;;;;;;;;;;17.31;48.32;97469.38;6223913;28;19944;-65
2022/08/06 00:05:06;;;;;;;;;;;;;;;17.26;48.54;97468.91;6223739;28;20057;-66
2022/08/06 00:08:12;;;;;;;;;;;;;;;17.22;49.05;97471.00;6224072;28;19926;-66
2022/08/06 00:11:15;;;;;;;;;;;;;;;17.20;48.58;97477.41;6223863;28;19926;-66
2022/08/06 00:14:20;;;;;;;;;;;;;;;17.26;49.65;97476.88;6223982;28;19926;-65
2022/08/06 00:17:23;;;;;;;;;;;;;;;17.20;49.71;97482.72;6223245;28;20403;-66
2022/08/06 00:20:29;;;;;;;;;;;;;;;17.11;50.01;97473.69;6222956;28;20206;-65
2022/08/06 00:23:32;;;;;;;;;;;;;;;17.10;49.54;97481.78;6223629;28;20414;-65
2022/08/06 00:26:38;;;;;;;;;;;;;;;17.08;49.85;97478.41;6223212;28;20288;-66
2022/08/06 00:29:41;;;;;;;;;;;;;;;17.03;49.24;97476.13;6221873;28;19929;-66
2022/08/06 00:32:43;;;;;;;;;;;;;;;17.03;49.60;97487.59;6223726;28;20419;-66
2022/08/06 00:35:46;;;;;;;;;;;;;;;17.02;50.00;97477.94;6223446;28;19929;-65
2022/08/06 00:38:50;;;;;;;;;;;;;;;17.03;49.67;97476.97;6223636;28;19972;-66
2022/08/06 00:41:51;;;;;;;;;;;;;;;17.04;50.03;97477.78;6221691;28;20426;-66
2022/08/06 00:44:52;;;;;;;;;;;;;;;17.02;49.82;97479.75;6222807;28;19926;-65
2022/08/06 00:47:56;;;;;;;;;;;;;;;17.04;50.15;97483.13;6223151;28;19925;-65
2022/08/06 00:51:02;;;;;;;;;;;;;;;17.03;50.22;97482.28;6223002;28;20399;-66
2022/08/06 00:54:05;;;;;;;;;;;;;;;17.09;50.27;97490.72;6222890;28;19926;-66
2022/08/06 00:57:07;;;;;;;;;;;;;;;17.08;50.02;97483.72;6222307;28;19929;-65
2022/08/06 01:00:08;;;;;;;;;;;;;;;17.08;50.38;97479.25;6222652;28;20011;-66
2022/08/06 01:03:16;;;;;;;;;;;;;;;17.14;50.74;97496.53;6222787;28;20311;-66
2022/08/06 01:06:22;;;;;;;;;;;;;;;17.10;50.88;97487.09;6222682;28;19925;-66
2022/08/06 01:09:26;;;;;;;;;;;;;;;17.11;50.45;97504.75;6222488;28;19932;-66
2022/08/06 01:12:27;;;;;;;;;;;;;;;17.14;50.57;97499.19;6222481;28;19926;-66
2022/08/06 01:15:28;;;;;;;;;;;;;;;17.19;50.20;97502.31;6222440;28;20291;-66
2022/08/06 01:18:34;;;;;;;;;;;;;;;17.23;50.13;97495.75;6222482;28;19921;-66
2022/08/06 01:21:50;;;;;;;;;;;;;;;17.26;50.79;97504.31;6222460;28;20010;-66
2022/08/06 01:25:00;;;;;;;;;;;;;;;17.31;50.36;97506.63;6222346;28;19941;-66
2022/08/06 01:28:12;;;;;;;;;;;;;;;17.28;50.64;97506.88;6222276;28;19926;-66
2022/08/06 01:31:20;;;;;;;;;;;;;;;17.30;50.42;97504.94;6222104;28;19925;-66
2022/08/06 01:34:39;;;;;;;;;;;;;;;17.34;50.40;97506.38;6221993;28;19926;-66
2022/08/06 01:37:50;;;;;;;;;;;;;;;17.41;50.38;97512.00;6222044;28;19933;-66
2022/08/06 01:40:54;;;;;;;;;;;;;;;17.41;49.98;97512.00;6221936;28;19925;-65
2022/08/06 01:43:55;;;;;;;;;;;;;;;17.45;49.92;97514.31;6221454;28;20403;-65
2022/08/06 01:46:58;;;;;;;;;;;;;;;17.51;50.04;97524.44;6221889;28;19931;-66
2022/08/06 01:50:02;;;;;;;;;;;;;;;17.58;50.24;97523.94;6221840;28;19925;-66
2022/08/06 01:53:08;;;;;;;;;;;;;;;17.66;49.59;97526.81;6221742;28;19925;-66
2022/08/06 01:56:14;;;;;;;;;;;;;;;17.73;49.60;97533.31;6221728;28;19926;-66
2022/08/06 01:59:18;;;;;;;;;;;;;;;17.76;49.98;97532.22;6221542;28;19932;-66
2022/08/06 02:02:21;;;;;;;;;;;;;;;17.80;50.21;97529.19;6221616;28;19933;-66
2022/08/06 02:05:23;;;;;;;;;;;;;;;17.87;49.47;97535.69;6220658;28;19926;-65
2022/08/06 02:08:27;;;;;;;;;;;;;;;17.94;49.54;97534.19;6221420;28;20466;-66
2022/08/06 02:11:29;;;;;;;;;;;;;;;18.00;49.67;97532.00;6221194;28;20350;-65
2022/08/06 02:14:31;;;;;;;;;;;;;;;18.08;49.51;97537.50;6221795;28;19932;-66
2022/08/06 02:17:37;;;;;;;;;;;;;;;18.19;48.79;97540.13;6221510;28;19925;-66
2022/08/06 02:20:47;;;;;;;;;;;;;;;18.26;49.18;97541.28;6221223;28;19932;-66
2022/08/06 02:23:51;;;;;;;;;;;;;;;18.33;49.17;97542.44;6221445;28;19925;-66
2022/08/06 02:26:55;;;;;;;;;;;;;;;18.39;49.01;97539.25;6221315;28;19925;-66
2022/08/06 02:30:00;;;;;;;;;;;;;;;18.46;49.26;97544.91;6221180;28;19948;-66
2022/08/06 02:33:06;;;;;;;;;;;;;;;18.54;49.09;97545.09;6221279;28;19925;-67
2022/08/06 02:36:14;;;;;;;;;;;;;;;18.61;49.04;97551.56;6220650;28;19925;-66
2022/08/06 02:39:26;;;;;;;;;;;;;;;18.70;49.17;97549.91;6221115;28;20431;-66
2022/08/06 02:42:33;;;;;;;;;;;;;;;18.78;49.04;97547.47;6220879;28;19931;-67
2022/08/06 02:45:57;;;;;;;;;;;;;;;18.88;48.85;97555.50;6221019;28;19925;-68
2022/08/06 02:49:03;;;;;;;;;;;;;;;18.97;49.08;97551.19;6221122;28;19992;-65
2022/08/06 02:52:08;;;;;;;;;;;;;;;19.07;48.44;97549.38;6223980;28;19926;-66
2022/08/06 02:55:15;;;;;;;;;;;;;;;19.18;48.33;97548.44;6225600;28;19925;-65
2022/08/06 02:58:19;;;;;;;;;;;;;;;19.31;48.34;97548.19;6225339;28;20296;-64
2022/08/06 03:01:25;;;;;;;;;;;;;;;19.36;48.30;97543.25;6225422;28;19928;-66
2022/08/06 03:04:32;;;;;;;;;;;;;;;19.47;48.50;97543.13;6225548;28;19933;-65
2022/08/06 03:07:35;;;;;;;;;;;;;;;19.57;48.68;97540.50;6224886;28;19928;-65
2022/08/06 03:10:38;;;;;;;;;;;;;;;19.63;48.37;97545.28;6225302;28;19925;-65
2022/08/06 03:13:43;;;;;;;;;;;;;;;19.72;48.31;97547.97;6225114;28;20419;-64
2022/08/06 03:16:48;;;;;;;;;;;;;;;19.86;47.96;97548.53;6225014;28;19925;-65
2022/08/06 03:19:52;;;;;;;;;;;;;;;19.96;48.18;97546.72;6224905;28;19925;-66
2022/08/06 03:22:58;;;;;;;;;;;;;;;20.08;48.01;97542.91;6225228;28;19925;-65
2022/08/06 03:26:03;;;;;;;;;;;;;;;20.22;47.93;97546.13;6224988;28;20016;-65
2022/08/06 03:29:07;;;;;;;;;;;;;;;20.31;47.68;97545.25;6224687;28;20020;-65
2022/08/06 03:32:15;;;;;;;;;;;;;;;20.43;47.28;97552.09;6224294;28;19925;-66
2022/08/06 03:35:16;;;;;;;;;;;;;;;20.56;46.94;97551.84;6224445;28;19925;-66
2022/08/06 03:38:20;;;;;;;;;;;;;;;20.69;46.77;97551.50;6224775;28;19932;-65
2022/08/06 03:41:23;;;;;;;;;;;;;;;20.79;46.46;97555.00;6224554;28;19932;-65
2022/08/06 03:44:24;;;;;;;;;;;;;;;20.88;46.12;97550.59;6223852;28;19933;-66
2022/08/06 03:47:32;;;;;;;;;;;;;;;20.99;46.15;97543.19;6224135;28;20311;-66
2022/08/06 03:50:43;;;;;;;;;;;;;;;21.13;45.86;97549.06;6223901;28;19926;-66
2022/08/06 03:53:47;;;;;;;;;;;;;;;21.30;45.68;97545.56;6224027;28;19965;-66
2022/08/06 03:56:52;;;;;;;;;;;;;;;21.42;45.36;97549.75;6224018;28;19932;-66
2022/08/06 04:00:00;;;;;;;;;;;;;;;21.51;45.11;97553.34;6224117;28;20003;-65
2022/08/06 04:03:07;;;;;;;;;;;;;;;21.63;44.90;97543.28;6223728;28;20310;-65
2022/08/06 04:06:09;;;;;;;;;;;;;;;21.75;44.59;97555.44;6223479;28;19940;-67
2022/08/06 04:09:13;;;;;;;;;;;;;;;21.88;44.35;97553.22;6223813;28;19925;-66
2022/08/06 04:12:17;;;;;;;;;;;;;;;22.08;44.00;97553.03;6223215;28;20008;-64
2022/08/06 04:15:18;;;;;;;;;;;;;;;22.15;43.82;97556.78;6223510;28;19926;-66
2022/08/06 04:18:25;;;;;;;;;;;;;;;22.26;43.65;97558.41;6223468;28;20429;-66
2022/08/06 04:21:28;;;;;;;;;;;;;;;22.39;43.28;97559.69;6223724;28;20071;-66
2022/08/06 04:24:30;;;;;;;;;;;;;;;22.51;43.10;97557.59;6223450;28;19926;-65
2022/08/06 04:27:34;;;;;;;;;;;;;;;22.64;42.68;97541.06;6223100;28;20284;-66
2022/08/06 04:30:40;;;;;;;;;;;;;;;22.82;42.43;97544.53;6223247;28;19932;-65
2022/08/06 04:33:44;;;;;;;;;;;;;;;22.92;41.69;97543.56;6223460;28;20299;-66
2022/08/06 04:36:47;;;;;;;;;;;;;;;23.04;41.43;97542.28;6223279;28;20318;-65
2022/08/06 04:39:49;;;;;;;;;;;;;;;23.17;41.11;97537.31;6222834;28;20063;-65
2022/08/06 04:42:57;;;;;;;;;;;;;;;23.31;40.81;97533.16;6223045;28;20302;-65
2022/08/06 04:45:59;;;;;;;;;;;;;;;23.48;40.13;97542.94;6222999;28;19925;-66
2022/08/06 04:49:03;;;;;;;;;;;;;;;23.88;39.21;97543.22;6222960;28;19926;-66
2022/08/06 04:52:04;;;;;;;;;;;;;;;26.97;35.29;97541.78;6222670;28;19925;-65
2022/08/06 04:55:08;;;;;;;;;;;;;;;31.80;29.50;97549.81;6222861;28;20482;-65
2022/08/06 04:58:11;;;;;;;;;;;;;;;36.06;25.32;97567.44;6222518;28;19921;-66
2022/08/06 05:01:16;;;;;;;;;;;;;;;39.59;22.95;97566.03;6222749;28;19925;-65
2022/08/06 05:04:20;;;;;;;;;;;;;;;42.52;19.70;97572.75;6222748;28;19928;-65
2022/08/06 05:07:29;;;;;;;;;;;;;;;44.48;19.27;97573.81;6222826;28;19926;-66
2022/08/06 05:10:37;;;;;;;;;;;;;;;46.17;13.00;97564.97;6222463;28;20424;-65
2022/08/06 05:13:43;;;;;;;;;;;;;;;47.68;14.20;97568.03;6221306;28;19975;-66
2022/08/06 05:16:48;;;;;;;;;;;;;;;49.18;16.65;97568.47;6222423;28;19929;-65
2022/08/06 05:19:58;;;;;;;;;;;;;;;50.36;14.01;97569.63;6222181;28;20009;-65
2022/08/06 05:23:02;;;;;;;;;;;;;;;51.09;13.18;97566.25;6221615;28;19925;-66
2022/08/06 05:26:08;;;;;;;;;;;;;;;51.97;9.62;97558.31;6222117;28;19925;-66
2022/08/06 05:29:11;;;;;;;;;;;;;;;53.08;13.35;97573.56;6221846;28;19928;-64
2022/08/06 05:32:17;;;;;;;;;;;;;;;53.91;12.11;97564.38;6221921;28;19929;-66
2022/08/06 05:35:21;;;;;;;;;;;;;;;54.91;12.25;97569.25;6222213;28;20478;-66
2022/08/06 05:38:25;;;;;;;;;;;;;;;55.79;11.19;97571.16;6220880;28;19983;-65
2022/08/06 05:41:29;;;;;;;;;;;;;;;56.33;10.83;97571.94;6221831;28;19925;-66
2022/08/06 05:44:35;;;;;;;;;;;;;;;56.53;9.30;97569.75;6222017;28;20313;-64
2022/08/06 05:47:41;;;;;;;;;;;;;;;55.95;8.66;97554.09;6221811;28;19926;-65
2022/08/06 05:50:57;;;;;;;;;;;;;;;55.73;8.01;97561.41;6221576;28;19925;-65
2022/08/06 05:54:35;;;;;;;;;;;;;;;55.86;7.58;97551.53;6221839;28;19926;-64
2022/08/06 05:57:59;;;;;;;;;;;;;;;56.37;7.72;97555.81;6208766;28;20395;-64
2022/08/06 06:01:02;;;;;;;;;;;;;;;56.51;7.20;97555.19;6221511;28;19925;-64
2022/08/06 06:04:04;;;;;;;;;;;;;;;56.84;7.38;97551.53;6221005;28;19929;-64
2022/08/06 06:07:11;;;;;;;;;;;;;;;57.26;4.78;97548.31;6221360;28;20421;-65
2022/08/06 06:10:20;;;;;;;;;;;;;;;58.28;6.69;97542.91;6204816;28;19925;-66
2022/08/06 06:13:23;;;;;;;;;;;;;;;58.86;6.91;97550.38;6222217;28;19925;-65
2022/08/06 06:16:34;;;;;;;;;;;;;;;58.80;6.09;97545.50;6221085;28;20422;-65
2022/08/06 06:19:58;;;;;;;;;;;;;;;59.03;6.66;97548.81;6224370;28;20415;-65
2022/08/06 06:23:07;;;;;;;;;;;;;;;59.56;6.34;97547.19;6241296;28;20015;-65
2022/08/06 06:26:17;;;;;;;;;;;;;;;59.84;5.10;97534.94;6252702;28;19928;-65
2022/08/06 06:29:40;;;;;;;;;;;;;;;59.77;5.26;97534.97;6256145;28;19925;-65
2022/08/06 06:33:04;;;;;;;;;;;;;;;59.84;4.97;97534.13;6255191;28;19912;-65
2022/08/06 06:36:24;;;;;;;;;;;;;;;60.17;4.64;97541.38;6254000;28;19925;-65
2022/08/06 06:39:31;;;;;;;;;;;;;;;57.23;4.89;97514.34;6228631;28;20012;-65
2022/08/06 06:42:40;;;;;;;;;;;;;;;52.96;6.30;97495.72;6224857;28;19925;-64
2022/08/06 06:45:55;;;;;;;;;;;;;;;49.93;7.68;97478.41;6225605;28;19980;-65
2022/08/06 06:49:06;;;;;;;;;;;;;;;50.55;7.68;97475.50;6225765;28;20296;-65
2022/08/06 06:52:16;;;;;;;;;;;;;;;52.63;6.56;97484.84;6225183;28;19926;-65
2022/08/06 06:55:24;;;;;;;;;;;;;;;54.43;5.66;97478.56;6225233;28;19925;-66
2022/08/06 06:58:37;;;;;;;;;;;;;;;56.63;5.39;97489.94;6225373;28;19925;-65
2022/08/06 07:01:44;;;;;;;;;;;;;;;58.44;4.59;97488.72;6224473;28;19925;-65
2022/08/06 07:04:48;;;;;;;;;;;;;;;59.57;3.88;97494.88;6224363;28;19945;-64
2022/08/06 07:07:52;;;;;;;;;;;;;;;60.44;3.97;97503.88;6224747;28;19925;-65
2022/08/06 07:11:00;;;;;;;;;;;;;;;61.15;3.88;97499.72;6246797;28;19930;-66
2022/08/06 07:14:04;;;;;;;;;;;;;;;61.62;3.50;97509.44;6252076;28;19925;-65
2022/08/06 07:17:08;;;;;;;;;;;;;;;61.54;3.07;97507.09;6252163;28;19925;-66
2022/08/06 07:20:14;;;;;;;;;;;;;;;61.89;2.60;97503.88;6253093;28;19993;-65
2022/08/06 07:23:18;;;;;;;;;;;;;;;61.89;2.50;97505.91;6253032;28;19929;-66
2022/08/06 07:26:23;;;;;;;;;;;;;;;60.96;2.87;97499.06;6254155;28;19926;-66
2022/08/06 07:29:26;;;;;;;;;;;;;;;57.01;4.75;97473.72;6216847;28;19929;-65
2022/08/06 07:32:30;;;;;;;;;;;;;;;54.07;5.35;97460.94;6224345;28;19925;-66
2022/08/06 07:35:33;;;;;;;;;;;;;;;55.68;5.17;97460.13;6224451;28;20318;-66
2022/08/06 07:38:42;;;;;;;;;;;;;;;58.02;3.32;97456.19;6223930;28;20318;-65
2022/08/06 07:41:47;;;;;;;;;;;;;;;59.42;3.35;97454.31;6224480;28;19925;-66
2022/08/06 07:44:56;;;;;;;;;;;;;;;59.09;2.98;97453.56;6224224;28;20311;-66
2022/08/06 07:48:01;;;;;;;;;;;;;;;56.06;4.57;97444.06;6221318;28;19926;-65
2022/08/06 07:51:04;;;;;;;;;;;;;;;54.94;4.89;97431.16;6224132;28;20307;-65
2022/08/06 07:54:08;;;;;;;;;;;;;;;56.46;4.02;97429.19;6222708;28;19936;-66
2022/08/06 07:57:13;;;;;;;;;;;;;;;58.25;3.59;97438.06;6224154;28;19925;-65
2022/08/06 08:00:17;;;;;;;;;;;;;;;58.97;3.18;97439.78;6223863;28;19926;-65
2022/08/06 08:06:44;;;;;;;;;;;;;;;60.16;2.85;97443.13;6224088;28;19925;-66
2022/08/06 08:09:47;;;;;;;;;;;;;;;60.94;2.87;97446.66;6222615;28;19925;-65
2022/08/06 08:12:49;;;;;;;;;;;;;;;61.48;2.81;97461.19;6223913;28;19926;-66
2022/08/06 08:15:54;;;;;;;;;;;;;;;62.14;2.75;97460.78;6228479;28;19925;-66
2022/08/06 08:18:59;;;;;;;;;;;;;;;62.83;2.30;97463.47;6249719;28;19956;-66
2022/08/06 08:22:05;;;;;;;;;;;;;;;60.90;3.07;97452.34;6238831;28;20333;-66
2022/08/06 08:25:12;;;;;;;;;;;;;;;57.89;3.67;97429.44;6222256;28;20303;-65
2022/08/06 08:28:18;;;;;;;;;;;;;;;57.30;4.21;97426.66;6223198;28;19926;-65
2022/08/06 08:31:23;;;;;;;;;;;;;;;57.89;3.94;97418.09;6222154;28;19925;-65
2022/08/06 08:34:28;;;;;;;;;;;;;;;58.87;3.34;97432.06;6221782;28;20028;-66
2022/08/06 08:37:31;;;;;;;;;;;;;;;58.78;3.23;97423.19;6223326;28;19925;-66
2022/08/06 08:40:38;;;;;;;;;;;;;;;59.46;3.28;97417.44;6223309;28;19925;-67
2022/08/06 08:43:48;;;;;;;;;;;;;;;59.21;3.61;97426.78;6223268;28;19925;-65
2022/08/06 08:46:52;;;;;;;;;;;;;;;55.60;4.69;97406.41;6222959;28;19987;-65
2022/08/06 08:49:57;;;;;;;;;;;;;;;50.63;6.51;97384.19;6222002;28;20087;-65
2022/08/06 08:53:06;;;;;;;;;;;;;;;46.69;8.12;97375.28;6222722;28;19967;-65
2022/08/06 08:56:12;;;;;;;;;;;;;;;48.08;7.79;97373.44;6222443;28;19925;-65
2022/08/06 08:59:15;;;;;;;;;;;;;;;51.29;5.92;97387.88;6222401;28;19968;-65
2022/08/06 09:02:18;;;;;;;;;;;;;;;54.00;4.92;97388.44;6220921;28;19926;-65
2022/08/06 09:05:21;;;;;;;;;;;;;;;55.93;4.05;97396.34;6222073;28;20364;-65
2022/08/06 09:08:25;;;;;;;;;;;;;;;56.68;4.05;97401.94;6222264;28;19921;-66
2022/08/06 09:11:29;;;;;;;;;;;;;;;56.70;4.15;97391.06;6222111;28;19926;-65
2022/08/06 09:14:33;;;;;;;;;;;;;;;57.27;3.74;97399.97;6222334;28;19925;-65
2022/08/06 09:17:37;;;;;;;;;;;;;;;57.99;3.31;97400.34;6222221;28;19925;-66
2022/08/06 09:20:41;;;;;;;;;;;;;;;57.64;3.65;97393.31;6222154;28;20307;-65
2022/08/06 09:23:44;;;;;;;;;;;;;;;56.09;4.40;97390.47;6222049;28;20311;-65
2022/08/06 09:27:03;;;;;;;;;;;;;;;55.03;4.16;97383.00;6221641;28;20407;-65
2022/08/06 09:30:07;;;;;;;;;;;;;;;51.57;6.01;97366.31;6220637;28;19925;-65
2022/08/06 09:33:12;;;;;;;;;;;;;;;47.66;7.42;97362.00;6222072;28;20284;-65
2022/08/06 09:36:15;;;;;;;;;;;;;;;44.41;9.49;97358.91;6222062;28;19925;-65
2022/08/06 09:39:30;;;;;;;;;;;;;;;42.47;9.99;97349.56;6221890;28;19925;-65
2022/08/06 09:42:37;;;;;;;;;;;;;;;40.31;11.28;97348.44;6220731;28;20403;-65
2022/08/06 09:45:45;;;;;;;;;;;;;;;40.44;11.22;97341.50;6221894;28;19933;-65
2022/08/06 09:48:59;;;;;;;;;;;;;;;43.69;9.33;97346.28;6221803;28;19948;-65
2022/08/06 09:52:15;;;;;;;;;;;;;;;47.01;7.72;97357.31;6221522;28;19925;-65
2022/08/06 09:55:32;;;;;;;;;;;;;;;49.61;6.72;97355.75;6221556;28;19926;-64
2022/08/06 09:58:37;;;;;;;;;;;;;;;49.60;6.85;97364.47;6221481;28;20403;-66
2022/08/06 10:01:45;;;;;;;;;;;;;;;46.88;8.24;97352.69;6219130;28;19929;-66
2022/08/06 10:04:48;;;;;;;;;;;;;;;43.71;9.68;97339.31;6220868;28;19926;-65
2022/08/06 10:08:08;;;;;;;;;;;;;;;40.96;11.48;97327.22;6221341;28;19931;-65
2022/08/06 10:11:11;;;;;;;;;;;;;;;38.88;12.62;97331.81;6221095;28;19933;-65
2022/08/06 10:14:25;;;;;;;;;;;;;;;38.86;12.48;97334.81;6221198;28;19955;-65
2022/08/06 10:17:30;;;;;;;;;;;;;;;41.76;10.52;97328.94;6220299;28;19926;-66
2022/08/06 10:20:33;;;;;;;;;;;;;;;45.27;8.67;97331.28;6219790;28;19926;-66
2022/08/06 10:23:38;;;;;;;;;;;;;;;45.55;8.68;97334.78;6220462;28;19929;-66
2022/08/06 10:26:42;;;;;;;;;;;;;;;43.65;9.70;97323.03;6221298;28;19925;-66
2022/08/06 10:29:53;;;;;;;;;;;;;;;42.93;10.25;97312.19;6221314;28;20417;-65
2022/08/06 10:32:58;;;;;;;;;;;;;;;43.26;10.40;97315.91;6221011;28;20300;-65
2022/08/06 10:36:08;;;;;;;;;;;;;;;43.47;9.82;97308.09;6220975;28;19929;-65
2022/08/06 10:39:14;;;;;;;;;;;;;;;44.30;9.79;97311.06;6220978;28;19926;-65
2022/08/06 10:42:17;;;;;;;;;;;;;;;43.57;10.26;97305.19;6220852;28;19929;-65
2022/08/06 10:45:21;;;;;;;;;;;;;;;43.26;10.06;97308.41;6220920;28;20000;-65
2022/08/06 10:48:24;;;;;;;;;;;;;;;43.93;9.67;97310.09;6221026;28;20317;-64
2022/08/06 10:51:28;;;;;;;;;;;;;;;44.51;9.57;97304.03;6221014;28;20307;-66
2022/08/06 10:54:31;;;;;;;;;;;;;;;44.92;8.97;97299.56;6220994;28;19926;-65
2022/08/06 10:57:34;;;;;;;;;;;;;;;44.42;9.34;97297.56;6221182;28;19925;-65
2022/08/06 11:00:39;;;;;;;;;;;;;;;44.39;9.52;97298.16;6220914;28;19929;-65
2022/08/06 11:04:05;;;;;;;;;;;;;;;44.81;8.77;97297.00;6220637;28;19925;-65
2022/08/06 11:07:24;;;;;;;;;;;;;;;45.48;8.61;97293.53;6215485;28;19932;-66
2022/08/06 11:10:28;;;;;;;;;;;;;;;46.18;8.48;97285.63;6220496;28;19927;-65
2022/08/06 11:13:52;;;;;;;;;;;;;;;45.70;8.72;97291.91;6224349;28;19925;-66
2022/08/06 11:16:59;;;;;;;;;;;;;;;43.59;9.78;97280.75;6225052;28;20485;-65
2022/08/06 11:20:02;;;;;;;;;;;;;;;43.40;10.04;97282.69;6224991;28;19925;-65
2022/08/06 11:23:12;;;;;;;;;;;;;;;43.14;10.52;97285.88;6224885;28;19926;-65
2022/08/06 11:26:31;;;;;;;;;;;;;;;42.14;10.63;97279.38;6224920;28;19933;-66
2022/08/06 11:29:53;;;;;;;;;;;;;;;40.26;11.77;97279.56;6224828;28;19925;-65
2022/08/06 11:32:57;;;;;;;;;;;;;;;40.04;12.04;97264.13;6224988;28;19929;-66
2022/08/06 11:36:01;;;;;;;;;;;;;;;40.76;11.55;97272.97;6224861;28;19926;-66
2022/08/06 11:39:04;;;;;;;;;;;;;;;41.59;10.98;97278.78;6224423;28;19929;-66
2022/08/06 11:42:07;;;;;;;;;;;;;;;42.24;10.71;97282.03;6224697;28;19951;-66
2022/08/06 11:45:10;;;;;;;;;;;;;;;42.39;10.34;97276.34;6224516;28;19926;-65
2022/08/06 11:48:14;;;;;;;;;;;;;;;42.57;10.09;97265.59;6224280;28;19921;-66
2022/08/06 11:51:34;;;;;;;;;;;;;;;42.74;10.57;97271.47;6224445;28;19929;-65
2022/08/06 11:54:43;;;;;;;;;;;;;;;42.75;10.58;97256.53;6224334;28;19925;-65
2022/08/06 11:57:48;;;;;;;;;;;;;;;41.58;11.33;97263.34;6224588;28;20379;-64
2022/08/06 12:00:55;;;;;;;;;;;;;;;40.37;12.01;97265.44;6224051;28;19925;-65
2022/08/06 12:03:58;;;;;;;;;;;;;;;38.87;13.08;97261.34;6224294;28;19925;-65
2022/08/06 12:07:22;;;;;;;;;;;;;;;37.62;13.83;97251.91;6222859;28;20315;-64
2022/08/06 12:10:26;;;;;;;;;;;;;;;37.40;14.03;97247.34;6224463;28;19926;-66
2022/08/06 12:13:40;;;;;;;;;;;;;;;37.68;13.95;97253.59;6222723;28;20004;-66
2022/08/06 12:16:43;;;;;;;;;;;;;;;38.08;13.60;97250.31;6223912;28;19925;-65
2022/08/06 12:19:51;;;;;;;;;;;;;;;37.90;13.47;97246.06;6222795;28;19921;-65
2022/08/06 12:22:54;;;;;;;;;;;;;;;37.85;13.50;97258.94;6223416;28;19925;-66
2022/08/06 12:25:59;;;;;;;;;;;;;;;38.36;13.60;97243.59;6222537;28;20306;-65
2022/08/06 12:29:04;;;;;;;;;;;;;;;39.24;13.03;97245.47;6223284;28;19925;-65
2022/08/06 12:32:23;;;;;;;;;;;;;;;39.46;12.52;97242.47;6223357;28;19925;-65
2022/08/06 12:35:27;;;;;;;;;;;;;;;39.51;12.77;97245.19;6223346;28;19926;-65
2022/08/06 12:38:31;;;;;;;;;;;;;;;39.04;12.54;97239.94;6222215;28;19925;-65
2022/08/06 12:41:35;;;;;;;;;;;;;;;38.64;13.10;97230.47;6222811;28;19925;-65
2022/08/06 12:44:39;;;;;;;;;;;;;;;38.77;13.20;97231.91;6223216;28;20417;-66
2022/08/06 12:47:42;;;;;;;;;;;;;;;38.83;12.88;97226.13;6223087;28;19926;-66
2022/08/06 12:50:46;;;;;;;;;;;;;;;38.74;13.11;97227.75;6223261;28;19925;-66
2022/08/06 12:53:52;;;;;;;;;;;;;;;38.72;13.24;97223.63;6221733;28;19925;-65
2022/08/06 12:56:55;;;;;;;;;;;;;;;38.56;13.45;97225.53;6222941;28;20391;-66
2022/08/06 12:59:58;;;;;;;;;;;;;;;38.44;13.40;97231.25;6222786;28;20303;-64
2022/08/06 13:03:03;;;;;;;;;;;;;;;38.13;13.14;97227.53;6222490;28;20115;-65
2022/08/06 13:06:08;;;;;;;;;;;;;;;37.43;13.72;97230.34;6222170;28;19929;-66
2022/08/06 13:09:12;;;;;;;;;;;;;;;36.97;14.24;97227.22;6222216;28;20391;-66
2022/08/06 13:12:18;;;;;;;;;;;;;;;36.42;14.58;97226.31;6220396;28;20390;-65
2022/08/06 13:15:22;;;;;;;;;;;;;;;36.01;15.12;97227.72;6222204;28;19926;-66
2022/08/06 13:18:26;;;;;;;;;;;;;;;35.85;14.82;97220.38;6222265;28;19925;-65
2022/08/06 13:21:30;;;;;;;;;;;;;;;35.41;14.97;97212.03;6222170;28;19925;-66
2022/08/06 13:24:33;;;;;;;;;;;;;;;35.24;15.56;97214.78;6222024;28;19925;-65
2022/08/06 13:27:36;;;;;;;;;;;;;;;35.25;15.57;97214.53;6222187;28;19925;-66
2022/08/06 13:30:40;;;;;;;;;;;;;;;34.97;15.98;97211.84;6221005;28;19925;-65
2022/08/06 13:33:59;;;;;;;;;;;;;;;34.53;16.24;97208.84;6221852;28;19925;-66
2022/08/06 13:37:02;;;;;;;;;;;;;;;34.28;16.41;97210.00;6221892;28;19925;-65
2022/08/06 13:40:06;;;;;;;;;;;;;;;34.19;16.55;97204.06;6221694;28;19926;-66
2022/08/06 13:43:09;;;;;;;;;;;;;;;34.10;16.87;97205.53;6221755;28;20387;-65
2022/08/06 13:46:14;;;;;;;;;;;;;;;34.39;16.55;97202.81;6221710;28;19926;-65
2022/08/06 13:49:17;;;;;;;;;;;;;;;34.72;16.35;97213.06;6221967;28;19925;-65
2022/08/06 13:52:20;;;;;;;;;;;;;;;34.70;16.34;97209.72;6220440;28;19925;-66
2022/08/06 13:55:23;;;;;;;;;;;;;;;34.54;16.52;97211.34;6221450;28;19925;-65
2022/08/06 13:58:26;;;;;;;;;;;;;;;34.27;16.96;97221.16;6221254;28;19930;-65
2022/08/06 14:01:30;;;;;;;;;;;;;;;33.99;16.95;97220.84;6221397;28;19961;-66
2022/08/06 14:04:33;;;;;;;;;;;;;;;33.72;17.06;97217.81;6221668;28;19925;-66
2022/08/06 14:07:37;;;;;;;;;;;;;;;33.37;17.31;97217.78;6221430;28;19925;-65
2022/08/06 14:10:40;;;;;;;;;;;;;;;33.09;17.89;97218.47;6221265;28;20299;-65
2022/08/06 14:13:44;;;;;;;;;;;;;;;32.74;17.98;97218.38;6220943;28;20303;-65
2022/08/06 14:16:47;;;;;;;;;;;;;;;32.39;18.16;97221.75;6221220;28;19925;-65
2022/08/06 14:19:51;;;;;;;;;;;;;;;32.04;18.77;97208.78;6219911;28;20020;-65
2022/08/06 14:22:55;;;;;;;;;;;;;;;31.79;19.15;97206.13;6221235;28;19925;-65
2022/08/06 14:26:01;;;;;;;;;;;;;;;31.65;19.70;97218.19;6221236;28;19934;-65
2022/08/06 14:29:04;;;;;;;;;;;;;;;31.39;19.44;97214.66;6220998;28;20009;-65
2022/08/06 14:32:08;;;;;;;;;;;;;;;31.18;19.52;97210.44;6219766;28;19969;-65
2022/08/06 14:35:15;;;;;;;;;;;;;;;31.06;19.29;97204.09;6221190;28;19925;-65
2022/08/06 14:38:22;;;;;;;;;;;;;;;30.92;19.43;97205.25;6221247;28;19925;-65
2022/08/06 14:44:54;;;;;;;;;;;;;;;30.57;20.30;97208.34;6220877;28;20330;-65
2022/08/06 14:47:58;;;;;;;;;;;;;;;30.40;20.65;97219.75;6224419;28;19965;-66
2022/08/06 14:50:59;;;;;;;;;;;;;;;30.29;20.75;97216.84;6225756;28;19926;-66
2022/08/06 14:54:04;;;;;;;;;;;;;;;30.12;20.71;97205.63;6226018;28;19925;-66
2022/08/06 14:57:09;;;;;;;;;;;;;;;30.03;20.99;97220.50;6225684;28;19930;-65
2022/08/06 15:00:14;;;;;;;;;;;;;;;29.80;21.27;97210.97;6225630;28;19933;-66
2022/08/06 15:03:17;;;;;;;;;;;;;;;29.53;21.65;97216.44;6225213;28;19925;-65
2022/08/06 15:06:23;;;;;;;;;;;;;;;29.24;21.95;97219.59;6225147;28;19925;-65
2022/08/06 15:09:27;;;;;;;;;;;;;;;28.99;22.05;97222.91;6225059;28;19925;-65
2022/08/06 15:12:33;;;;;;;;;;;;;;;28.76;22.20;97223.31;6225108;28;19925;-65
2022/08/06 15:15:36;;;;;;;;;;;;;;;28.58;22.44;97231.19;6225081;28;19925;-65
2022/08/06 15:18:44;;;;;;;;;;;;;;;28.43;22.71;97234.06;6225271;28;19926;-65
2022/08/06 15:21:46;;;;;;;;;;;;;;;28.30;22.57;97232.09;6224878;28;19932;-66
2022/08/06 15:24:48;;;;;;;;;;;;;;;28.18;22.76;97231.03;6225184;28;20358;-65
2022/08/06 15:27:49;;;;;;;;;;;;;;;28.04;22.48;97232.84;6224746;28;19933;-65
2022/08/06 15:30:53;;;;;;;;;;;;;;;27.87;23.08;97236.91;6224568;28;19925;-66
2022/08/06 15:33:54;;;;;;;;;;;;;;;27.71;23.31;97236.19;6224193;28;20068;-66
2022/08/06 15:36:58;;;;;;;;;;;;;;;27.56;23.85;97231.91;6224494;28;19929;-65
2022/08/06 15:40:02;;;;;;;;;;;;;;;27.41;23.95;97242.84;6224570;28;19921;-66
2022/08/06 15:43:04;;;;;;;;;;;;;;;27.20;23.93;97239.13;6224579;28;20303;-66
2022/08/06 15:46:05;;;;;;;;;;;;;;;27.01;24.37;97239.78;6224328;28;20310;-66
2022/08/06 15:49:16;;;;;;;;;;;;;;;26.86;24.30;97232.59;6224521;28;19925;-66
2022/08/06 15:52:23;;;;;;;;;;;;;;;26.69;24.44;97244.66;6224076;28;19925;-66
2022/08/06 15:55:26;;;;;;;;;;;;;;;26.54;24.61;97238.50;6224113;28;19925;-66
2022/08/06 15:58:30;;;;;;;;;;;;;;;26.37;25.10;97245.97;6223316;28;19932;-65
2022/08/06 16:01:33;;;;;;;;;;;;;;;26.16;25.28;97246.75;6223513;28;19925;-66
2022/08/06 16:04:35;;;;;;;;;;;;;;;26.00;25.14;97244.28;6223802;28;19926;-65
2022/08/06 16:07:43;;;;;;;;;;;;;;;25.88;25.55;97244.75;6223862;28;20020;-65
2022/08/06 16:10:47;;;;;;;;;;;;;;;25.81;25.89;97249.16;6223364;28;19925;-65
2022/08/06 16:13:48;;;;;;;;;;;;;;;25.75;25.74;97255.31;6223287;28;20024;-66
2022/08/06 16:16:49;;;;;;;;;;;;;;;25.61;26.13;97254.28;6223212;28;19925;-66
2022/08/06 16:19:50;;;;;;;;;;;;;;;25.48;26.14;97268.41;6223592;28;20311;-66